sensor_id;sensor_type;location;lat;lon;timestamp;P1;P2;P0
55549;PMS7003;41397;49.972;18.944;2023-03-31T00:01:05;19;19;16
55549;PMS7003;41397;49.972;18.944;2023-03-31T00:04:08;19;19;14
55549;PMS7003;41397;49.972;18.944;2023-03-31T00:07:13;17;17;14
55549;PMS7003;41397;49.972;18.944;2023-03-31T00:10:16;20;20;14
55549;PMS7003;41397;49.972;18.944;2023-03-31T00:13:19;21;21;11
55549;PMS7003;41397;49.972;18.944;2023-03-31T00:16:20;25;21;15
55549;PMS7003;41397;49.972;18.944;2023-03-31T00:19:22;18;18;15
55549;PMS7003;41397;49.972;18.944;2023-03-31T00:22:24;25;25;16
55549;PMS7003;41397;49.972;18.944;2023-03-31T00:25:27;21;21;15
55549;PMS7003;41397;49.972;18.944;2023-03-31T00:28:28;20;20;14
55549;PMS7003;41397;49.972;18.944;2023-03-31T00:31:30;22;22;15
55549;PMS7003;41397;49.972;18.944;2023-03-31T00:34:32;20;20;17
55549;PMS7003;41397;49.972;18.944;2023-03-31T00:37:34;22;22;14
55549;PMS7003;41397;49.972;18.944;2023-03-31T00:40:36;23;23;16
55549;PMS7003;41397;49.972;18.944;2023-03-31T00:56:55;21;20;13
55549;PMS7003;41397;49.972;18.944;2023-03-31T00:59:58;16;16;15
55549;PMS7003;41397;49.972;18.944;2023-03-31T01:03:14;17;17;13
55549;PMS7003;41397;49.972;18.944;2023-03-31T01:06:16;11;11;10
55549;PMS7003;41397;49.972;18.944;2023-03-31T01:09:19;18;18;14
55549;PMS7003;41397;49.972;18.944;2023-03-31T01:12:24;11;11;9
55549;PMS7003;41397;49.972;18.944;2023-03-31T01:15:27;19;19;15
55549;PMS7003;41397;49.972;18.944;2023-03-31T01:18:28;13;13;10
55549;PMS7003;41397;49.972;18.944;2023-03-31T01:31:40;17;17;12
55549;PMS7003;41397;49.972;18.944;2023-03-31T01:41:36;11;11;8
55549;PMS7003;41397;49.972;18.944;2023-03-31T01:48:01;7;7;4
55549;PMS7003;41397;49.972;18.944;2023-03-31T01:51:33;9;9;5
55549;PMS7003;41397;49.972;18.944;2023-03-31T01:57:44;12;12;9
55549;PMS7003;41397;49.972;18.944;2023-03-31T02:00:58;7;7;6
55549;PMS7003;41397;49.972;18.944;2023-03-31T02:04:07;9;9;7
55549;PMS7003;41397;49.972;18.944;2023-03-31T02:07:15;11;11;7
55549;PMS7003;41397;49.972;18.944;2023-03-31T02:10:24;7;7;6
55549;PMS7003;41397;49.972;18.944;2023-03-31T02:13:29;9;9;5
55549;PMS7003;41397;49.972;18.944;2023-03-31T02:16:35;11;11;9
55549;PMS7003;41397;49.972;18.944;2023-03-31T02:19:48;7;7;4
55549;PMS7003;41397;49.972;18.944;2023-03-31T02:22:53;7;7;7
55549;PMS7003;41397;49.972;18.944;2023-03-31T02:29:09;7;7;5
55549;PMS7003;41397;49.972;18.944;2023-03-31T02:32:16;7;7;6
55549;PMS7003;41397;49.972;18.944;2023-03-31T02:35:27;10;10;4
55549;PMS7003;41397;49.972;18.944;2023-03-31T02:38:30;8;8;7
55549;PMS7003;41397;49.972;18.944;2023-03-31T02:41:37;6;6;5
55549;PMS7003;41397;49.972;18.944;2023-03-31T02:44:41;7;7;7
55549;PMS7003;41397;49.972;18.944;2023-03-31T02:47:43;7;7;6
55549;PMS7003;41397;49.972;18.944;2023-03-31T03:16:42;7;7;6
55549;PMS7003;41397;49.972;18.944;2023-03-31T03:22:56;17;17;11
55549;PMS7003;41397;49.972;18.944;2023-03-31T03:25:58;16;16;12
55549;PMS7003;41397;49.972;18.944;2023-03-31T03:28:59;10;10;9
55549;PMS7003;41397;49.972;18.944;2023-03-31T03:32:00;10;10;7
55549;PMS7003;41397;49.972;18.944;2023-03-31T03:35:03;1;1;0
55549;PMS7003;41397;49.972;18.944;2023-03-31T03:38:06;8;8;7
55549;PMS7003;41397;49.972;18.944;2023-03-31T03:41:07;10;10;7
55549;PMS7003;41397;49.972;18.944;2023-03-31T03:44:09;9;9;8
55549;PMS7003;41397;49.972;18.944;2023-03-31T03:47:11;7;7;6
55549;PMS7003;41397;49.972;18.944;2023-03-31T03:50:13;11;11;9
55549;PMS7003;41397;49.972;18.944;2023-03-31T03:53:25;10;10;7
55549;PMS7003;41397;49.972;18.944;2023-03-31T03:56:27;15;15;10
55549;PMS7003;41397;49.972;18.944;2023-03-31T03:59:28;13;12;9
55549;PMS7003;41397;49.972;18.944;2023-03-31T04:02:30;8;8;7
55549;PMS7003;41397;49.972;18.944;2023-03-31T04:05:31;17;14;9
55549;PMS7003;41397;49.972;18.944;2023-03-31T04:08:34;18;18;13
55549;PMS7003;41397;49.972;18.944;2023-03-31T04:11:36;21;17;14
55549;PMS7003;41397;49.972;18.944;2023-03-31T04:14:38;15;15;10
55549;PMS7003;41397;49.972;18.944;2023-03-31T04:17:39;11;11;9
55549;PMS7003;41397;49.972;18.944;2023-03-31T04:20:42;13;13;10
55549;PMS7003;41397;49.972;18.944;2023-03-31T04:23:44;10;10;8
55549;PMS7003;41397;49.972;18.944;2023-03-31T04:26:46;10;10;9
55549;PMS7003;41397;49.972;18.944;2023-03-31T04:29:50;13;13;10
55549;PMS7003;41397;49.972;18.944;2023-03-31T04:32:55;16;16;14
55549;PMS7003;41397;49.972;18.944;2023-03-31T04:35:58;16;16;10
55549;PMS7003;41397;49.972;18.944;2023-03-31T04:39:06;17;17;14
55549;PMS7003;41397;49.972;18.944;2023-03-31T04:42:10;16;16;12
55549;PMS7003;41397;49.972;18.944;2023-03-31T04:45:12;10;10;9
55549;PMS7003;41397;49.972;18.944;2023-03-31T04:48:14;11;11;7
55549;PMS7003;41397;49.972;18.944;2023-03-31T04:51:35;15;15;13
55549;PMS7003;41397;49.972;18.944;2023-03-31T04:54:36;17;17;9
55549;PMS7003;41397;49.972;18.944;2023-03-31T04:57:38;14;14;8
55549;PMS7003;41397;49.972;18.944;2023-03-31T05:04:12;15;15;12
55549;PMS7003;41397;49.972;18.944;2023-03-31T05:07:19;13;13;10
55549;PMS7003;41397;49.972;18.944;2023-03-31T05:10:26;12;12;10
55549;PMS7003;41397;49.972;18.944;2023-03-31T05:13:31;11;11;9
55549;PMS7003;41397;49.972;18.944;2023-03-31T05:27:09;11;11;10
55549;PMS7003;41397;49.972;18.944;2023-03-31T05:30:22;10;10;9
55549;PMS7003;41397;49.972;18.944;2023-03-31T05:33:26;4;4;4
55549;PMS7003;41397;49.972;18.944;2023-03-31T05:36:28;6;6;6
55549;PMS7003;41397;49.972;18.944;2023-03-31T05:39:29;7;7;5
55549;PMS7003;41397;49.972;18.944;2023-03-31T05:42:32;10;10;7
55549;PMS7003;41397;49.972;18.944;2023-03-31T05:45:34;6;6;5
55549;PMS7003;41397;49.972;18.944;2023-03-31T05:48:36;9;9;8
55549;PMS7003;41397;49.972;18.944;2023-03-31T05:51:37;8;8;7
55549;PMS7003;41397;49.972;18.944;2023-03-31T05:54:46;7;7;4
55549;PMS7003;41397;49.972;18.944;2023-03-31T05:57:50;4;4;3
55549;PMS7003;41397;49.972;18.944;2023-03-31T06:04:09;6;6;5
55549;PMS7003;41397;49.972;18.944;2023-03-31T06:07:11;4;4;3
55549;PMS7003;41397;49.972;18.944;2023-03-31T06:10:14;6;6;4
55549;PMS7003;41397;49.972;18.944;2023-03-31T06:13:15;7;7;5
55549;PMS7003;41397;49.972;18.944;2023-03-31T06:16:17;5;5;4
55549;PMS7003;41397;49.972;18.944;2023-03-31T06:19:19;5;5;4
55549;PMS7003;41397;49.972;18.944;2023-03-31T06:22:20;5;5;4
55549;PMS7003;41397;49.972;18.944;2023-03-31T06:25:22;6;6;5
55549;PMS7003;41397;49.972;18.944;2023-03-31T06:31:49;5;5;4
55549;PMS7003;41397;49.972;18.944;2023-03-31T06:34:54;4;4;4
55549;PMS7003;41397;49.972;18.944;2023-03-31T06:37:56;1;1;0
55549;PMS7003;41397;49.972;18.944;2023-03-31T06:40:57;2;2;2
55549;PMS7003;41397;49.972;18.944;2023-03-31T06:43:59;3;3;3
55549;PMS7003;41397;49.972;18.944;2023-03-31T06:47:02;5;5;3
55549;PMS7003;41397;49.972;18.944;2023-03-31T06:50:04;9;9;7
55549;PMS7003;41397;49.972;18.944;2023-03-31T06:53:09;4;4;3
55549;PMS7003;41397;49.972;18.944;2023-03-31T06:56:11;2;2;1
55549;PMS7003;41397;49.972;18.944;2023-03-31T06:59:12;2;2;1
55549;PMS7003;41397;49.972;18.944;2023-03-31T07:02:14;4;4;4
55549;PMS7003;41397;49.972;18.944;2023-03-31T07:05:17;2;2;1
55549;PMS7003;41397;49.972;18.944;2023-03-31T07:08:19;4;4;2
55549;PMS7003;41397;49.972;18.944;2023-03-31T07:11:27;2;2;1
55549;PMS7003;41397;49.972;18.944;2023-03-31T07:14:29;0;0;0
55549;PMS7003;41397;49.972;18.944;2023-03-31T07:17:31;2;2;2
55549;PMS7003;41397;49.972;18.944;2023-03-31T07:20:33;2;2;2
55549;PMS7003;41397;49.972;18.944;2023-03-31T07:23:35;3;3;2
55549;PMS7003;41397;49.972;18.944;2023-03-31T07:26:37;2;2;1
55549;PMS7003;41397;49.972;18.944;2023-03-31T07:29:38;0;0;0
55549;PMS7003;41397;49.972;18.944;2023-03-31T07:32:40;4;4;4
55549;PMS7003;41397;49.972;18.944;2023-03-31T07:35:41;1;1;1
55549;PMS7003;41397;49.972;18.944;2023-03-31T07:38:44;2;2;1
55549;PMS7003;41397;49.972;18.944;2023-03-31T07:41:49;3;3;3
55549;PMS7003;41397;49.972;18.944;2023-03-31T07:44:50;1;1;1
55549;PMS7003;41397;49.972;18.944;2023-03-31T07:47:51;5;5;2
55549;PMS7003;41397;49.972;18.944;2023-03-31T07:50:53;2;2;2
55549;PMS7003;41397;49.972;18.944;2023-03-31T07:53:55;1;1;1
55549;PMS7003;41397;49.972;18.944;2023-03-31T07:56:56;3;3;2
55549;PMS7003;41397;49.972;18.944;2023-03-31T08:00:04;6;6;5
55549;PMS7003;41397;49.972;18.944;2023-03-31T08:03:10;5;5;2
55549;PMS7003;41397;49.972;18.944;2023-03-31T08:06:22;0;0;0
55549;PMS7003;41397;49.972;18.944;2023-03-31T08:09:19;0;0;0
55549;PMS7003;41397;49.972;18.944;2023-03-31T08:12:23;2;2;1
55549;PMS7003;41397;49.972;18.944;2023-03-31T08:15:25;1;1;1
55549;PMS7003;41397;49.972;18.944;2023-03-31T08:18:26;2;1;0
55549;PMS7003;41397;49.972;18.944;2023-03-31T08:21:28;4;4;3
55549;PMS7003;41397;49.972;18.944;2023-03-31T08:24:30;0;0;0
55549;PMS7003;41397;49.972;18.944;2023-03-31T08:27:32;2;2;2
55549;PMS7003;41397;49.972;18.944;2023-03-31T08:30:36;1;1;1
55549;PMS7003;41397;49.972;18.944;2023-03-31T08:33:39;3;3;2
55549;PMS7003;41397;49.972;18.944;2023-03-31T08:36:40;3;3;1
55549;PMS7003;41397;49.972;18.944;2023-03-31T08:39:42;2;2;2
55549;PMS7003;41397;49.972;18.944;2023-03-31T08:42:44;2;2;1
55549;PMS7003;41397;49.972;18.944;2023-03-31T08:45:49;1;1;1
55549;PMS7003;41397;49.972;18.944;2023-03-31T08:48:51;4;4;3
55549;PMS7003;41397;49.972;18.944;2023-03-31T08:52:00;0;0;0
55549;PMS7003;41397;49.972;18.944;2023-03-31T08:55:09;3;3;3
55549;PMS7003;41397;49.972;18.944;2023-03-31T09:01:45;2;2;2
55549;PMS7003;41397;49.972;18.944;2023-03-31T09:05:02;1;1;1
55549;PMS7003;41397;49.972;18.944;2023-03-31T09:11:37;3;3;2
55549;PMS7003;41397;49.972;18.944;2023-03-31T09:14:53;0;0;0
55549;PMS7003;41397;49.972;18.944;2023-03-31T09:18:12;4;4;1
55549;PMS7003;41397;49.972;18.944;2023-03-31T09:24:31;0;0;0
55549;PMS7003;41397;49.972;18.944;2023-03-31T09:27:41;3;3;3
55549;PMS7003;41397;49.972;18.944;2023-03-31T09:30:44;5;5;4
55549;PMS7003;41397;49.972;18.944;2023-03-31T09:33:52;2;2;1
55549;PMS7003;41397;49.972;18.944;2023-03-31T09:37:00;3;3;2
55549;PMS7003;41397;49.972;18.944;2023-03-31T09:40:03;4;4;4
55549;PMS7003;41397;49.972;18.944;2023-03-31T09:46:25;6;6;4
55549;PMS7003;41397;49.972;18.944;2023-03-31T09:49:32;6;3;2
55549;PMS7003;41397;49.972;18.944;2023-03-31T09:52:40;2;2;2
55549;PMS7003;41397;49.972;18.944;2023-03-31T09:55:48;2;2;2
55549;PMS7003;41397;49.972;18.944;2023-03-31T09:58:53;3;3;2
55549;PMS7003;41397;49.972;18.944;2023-03-31T10:02:05;6;6;3
55549;PMS7003;41397;49.972;18.944;2023-03-31T10:08:31;3;3;3
55549;PMS7003;41397;49.972;18.944;2023-03-31T10:11:38;3;3;3
55549;PMS7003;41397;49.972;18.944;2023-03-31T10:14:48;4;4;3
55549;PMS7003;41397;49.972;18.944;2023-03-31T10:17:51;4;4;4
55549;PMS7003;41397;49.972;18.944;2023-03-31T10:20:52;4;4;3
55549;PMS7003;41397;49.972;18.944;2023-03-31T10:23:58;2;2;2
55549;PMS7003;41397;49.972;18.944;2023-03-31T10:27:03;5;5;4
55549;PMS7003;41397;49.972;18.944;2023-03-31T10:30:11;4;4;3
55549;PMS7003;41397;49.972;18.944;2023-03-31T10:33:19;3;3;3
55549;PMS7003;41397;49.972;18.944;2023-03-31T10:36:27;4;4;3
55549;PMS7003;41397;49.972;18.944;2023-03-31T10:39:31;3;3;2
55549;PMS7003;41397;49.972;18.944;2023-03-31T10:42:33;3;3;2
55549;PMS7003;41397;49.972;18.944;2023-03-31T10:45:42;4;4;4
55549;PMS7003;41397;49.972;18.944;2023-03-31T10:48:50;3;3;2
55549;PMS7003;41397;49.972;18.944;2023-03-31T10:51:53;2;2;2
55549;PMS7003;41397;49.972;18.944;2023-03-31T10:54:58;5;5;5
55549;PMS7003;41397;49.972;18.944;2023-03-31T11:01:17;3;3;2
55549;PMS7003;41397;49.972;18.944;2023-03-31T11:04:34;4;4;2
55549;PMS7003;41397;49.972;18.944;2023-03-31T11:11:07;6;6;2
55549;PMS7003;41397;49.972;18.944;2023-03-31T11:20:57;3;3;2
55549;PMS7003;41397;49.972;18.944;2023-03-31T11:27:25;49;30;10
55549;PMS7003;41397;49.972;18.944;2023-03-31T11:43:32;0;0;0
55549;PMS7003;41397;49.972;18.944;2023-03-31T11:49:56;57;36;16
55549;PMS7003;41397;49.972;18.944;2023-03-31T11:53:01;5;5;4
55549;PMS7003;41397;49.972;18.944;2023-03-31T11:56:09;1;1;0
55549;PMS7003;41397;49.972;18.944;2023-03-31T11:59:13;0;0;0
55549;PMS7003;41397;49.972;18.944;2023-03-31T12:05:30;0;0;0
55549;PMS7003;41397;49.972;18.944;2023-03-31T12:18:16;0;0;0
55549;PMS7003;41397;49.972;18.944;2023-03-31T12:21:22;1;1;1
55549;PMS7003;41397;49.972;18.944;2023-03-31T12:24:27;1;1;0
55549;PMS7003;41397;49.972;18.944;2023-03-31T12:30:41;1;1;0
55549;PMS7003;41397;49.972;18.944;2023-03-31T12:33:53;0;0;0
55549;PMS7003;41397;49.972;18.944;2023-03-31T12:37:05;0;0;0
55549;PMS7003;41397;49.972;18.944;2023-03-31T12:50:03;0;0;0
55549;PMS7003;41397;49.972;18.944;2023-03-31T12:56:29;0;0;0
55549;PMS7003;41397;49.972;18.944;2023-03-31T13:00:18;1;1;0
55549;PMS7003;41397;49.972;18.944;2023-03-31T13:12:53;0;0;0
55549;PMS7003;41397;49.972;18.944;2023-03-31T13:16:12;0;0;0
55549;PMS7003;41397;49.972;18.944;2023-03-31T13:22:35;3;3;2
55549;PMS7003;41397;49.972;18.944;2023-03-31T13:32:16;0;0;0
55549;PMS7003;41397;49.972;18.944;2023-03-31T13:35:22;3;3;3
55549;PMS7003;41397;49.972;18.944;2023-03-31T13:48:18;1;1;0
55549;PMS7003;41397;49.972;18.944;2023-03-31T13:51:36;1;1;1
55549;PMS7003;41397;49.972;18.944;2023-03-31T14:01:19;1;1;1
55549;PMS7003;41397;49.972;18.944;2023-03-31T14:10:55;0;0;0
55549;PMS7003;41397;49.972;18.944;2023-03-31T14:14:16;2;2;1
55549;PMS7003;41397;49.972;18.944;2023-03-31T14:17:19;1;1;0
55549;PMS7003;41397;49.972;18.944;2023-03-31T14:20:31;0;0;0
55549;PMS7003;41397;49.972;18.944;2023-03-31T14:24:01;2;2;2
55549;PMS7003;41397;49.972;18.944;2023-03-31T14:36:41;6;6;5
55549;PMS7003;41397;49.972;18.944;2023-03-31T14:39:52;3;3;3
55549;PMS7003;41397;49.972;18.944;2023-03-31T14:42:56;2;2;2
55549;PMS7003;41397;49.972;18.944;2023-03-31T14:45:59;1;1;0
55549;PMS7003;41397;49.972;18.944;2023-03-31T14:52:23;2;2;1
55549;PMS7003;41397;49.972;18.944;2023-03-31T14:55:26;4;4;3
55549;PMS7003;41397;49.972;18.944;2023-03-31T14:58:32;1;1;0
55549;PMS7003;41397;49.972;18.944;2023-03-31T15:01:40;5;5;4
55549;PMS7003;41397;49.972;18.944;2023-03-31T15:04:42;4;4;4
55549;PMS7003;41397;49.972;18.944;2023-03-31T15:07:48;7;7;4
55549;PMS7003;41397;49.972;18.944;2023-03-31T15:10:50;4;4;3
55549;PMS7003;41397;49.972;18.944;2023-03-31T15:13:55;4;4;4
55549;PMS7003;41397;49.972;18.944;2023-03-31T15:16:58;10;10;9
55549;PMS7003;41397;49.972;18.944;2023-03-31T15:20:00;3;3;2
55549;PMS7003;41397;49.972;18.944;2023-03-31T15:26:28;5;5;4
55549;PMS7003;41397;49.972;18.944;2023-03-31T15:29:43;5;5;5
55549;PMS7003;41397;49.972;18.944;2023-03-31T15:32:42;4;4;4
55549;PMS7003;41397;49.972;18.944;2023-03-31T15:35:44;7;7;6
55549;PMS7003;41397;49.972;18.944;2023-03-31T15:38:46;8;6;4
55549;PMS7003;41397;49.972;18.944;2023-03-31T15:41:56;1;1;1
55549;PMS7003;41397;49.972;18.944;2023-03-31T15:45:22;2;2;1
55549;PMS7003;41397;49.972;18.944;2023-03-31T15:48:21;1;1;0
55549;PMS7003;41397;49.972;18.944;2023-03-31T15:54:40;4;4;4
55549;PMS7003;41397;49.972;18.944;2023-03-31T15:57:43;6;6;6
55549;PMS7003;41397;49.972;18.944;2023-03-31T16:03:53;3;3;3
55549;PMS7003;41397;49.972;18.944;2023-03-31T16:06:57;5;5;4
55549;PMS7003;41397;49.972;18.944;2023-03-31T16:13:22;8;8;6
55549;PMS7003;41397;49.972;18.944;2023-03-31T16:16:25;10;10;8
55549;PMS7003;41397;49.972;18.944;2023-03-31T16:22:59;8;8;7
55549;PMS7003;41397;49.972;18.944;2023-03-31T16:26:01;5;5;4
55549;PMS7003;41397;49.972;18.944;2023-03-31T16:29:03;7;7;6
55549;PMS7003;41397;49.972;18.944;2023-03-31T16:32:10;9;9;5
55549;PMS7003;41397;49.972;18.944;2023-03-31T16:35:14;11;11;9
55549;PMS7003;41397;49.972;18.944;2023-03-31T16:38:16;13;13;11
55549;PMS7003;41397;49.972;18.944;2023-03-31T16:42:30;15;15;10
55549;PMS7003;41397;49.972;18.944;2023-03-31T16:45:32;8;8;5
55549;PMS7003;41397;49.972;18.944;2023-03-31T16:48:33;20;20;16
55549;PMS7003;41397;49.972;18.944;2023-03-31T16:51:38;16;16;11
55549;PMS7003;41397;49.972;18.944;2023-03-31T16:54:40;17;17;12
55549;PMS7003;41397;49.972;18.944;2023-03-31T16:57:41;12;12;10
55549;PMS7003;41397;49.972;18.944;2023-03-31T17:00:43;8;8;6
55549;PMS7003;41397;49.972;18.944;2023-03-31T17:03:46;13;13;9
55549;PMS7003;41397;49.972;18.944;2023-03-31T17:06:48;16;16;13
55549;PMS7003;41397;49.972;18.944;2023-03-31T17:09:49;22;22;15
55549;PMS7003;41397;49.972;18.944;2023-03-31T17:12:51;22;22;18
55549;PMS7003;41397;49.972;18.944;2023-03-31T17:15:54;20;20;15
55549;PMS7003;41397;49.972;18.944;2023-03-31T17:18:55;20;20;14
55549;PMS7003;41397;49.972;18.944;2023-03-31T17:21:57;27;27;20
55549;PMS7003;41397;49.972;18.944;2023-03-31T17:25:03;26;25;17
55549;PMS7003;41397;49.972;18.944;2023-03-31T17:28:07;24;24;18
55549;PMS7003;41397;49.972;18.944;2023-03-31T17:34:23;19;19;14
55549;PMS7003;41397;49.972;18.944;2023-03-31T17:37:48;24;24;19
55549;PMS7003;41397;49.972;18.944;2023-03-31T17:41:13;34;31;24
55549;PMS7003;41397;49.972;18.944;2023-03-31T17:44:04;23;23;17
55549;PMS7003;41397;49.972;18.944;2023-03-31T17:47:09;23;23;14
55549;PMS7003;41397;49.972;18.944;2023-03-31T17:54:09;14;14;9
55549;PMS7003;41397;49.972;18.944;2023-03-31T17:57:36;27;23;17
55549;PMS7003;41397;49.972;18.944;2023-03-31T18:00:40;27;27;21
55549;PMS7003;41397;49.972;18.944;2023-03-31T18:10:34;19;19;12
55549;PMS7003;41397;49.972;18.944;2023-03-31T18:21:11;16;16;13
55549;PMS7003;41397;49.972;18.944;2023-03-31T18:31:19;24;24;16
55549;PMS7003;41397;49.972;18.944;2023-03-31T18:34:51;16;16;12
55549;PMS7003;41397;49.972;18.944;2023-03-31T18:41:51;29;24;16
55549;PMS7003;41397;49.972;18.944;2023-03-31T19:26:57;25;24;16
55549;PMS7003;41397;49.972;18.944;2023-03-31T19:29:59;22;22;18
55549;PMS7003;41397;49.972;18.944;2023-03-31T20:28:24;16;16;10
55549;PMS7003;41397;49.972;18.944;2023-03-31T20:42:15;21;21;14
55549;PMS7003;41397;49.972;18.944;2023-03-31T20:45:16;8;8;6
55549;PMS7003;41397;49.972;18.944;2023-03-31T20:48:17;9;5;4
55549;PMS7003;41397;49.972;18.944;2023-03-31T20:51:20;3;3;2
55549;PMS7003;41397;49.972;18.944;2023-03-31T20:54:24;4;4;4
55549;PMS7003;41397;49.972;18.944;2023-03-31T20:57:26;6;6;5
55549;PMS7003;41397;49.972;18.944;2023-03-31T21:00:28;8;8;6
55549;PMS7003;41397;49.972;18.944;2023-03-31T21:03:30;8;8;7
55549;PMS7003;41397;49.972;18.944;2023-03-31T21:06:36;4;4;4
55549;PMS7003;41397;49.972;18.944;2023-03-31T21:09:44;4;4;4
55549;PMS7003;41397;49.972;18.944;2023-03-31T21:12:46;4;4;3
55549;PMS7003;41397;49.972;18.944;2023-03-31T21:15:48;2;2;2
55549;PMS7003;41397;49.972;18.944;2023-03-31T21:18:55;4;4;4
55549;PMS7003;41397;49.972;18.944;2023-03-31T21:21:59;9;4;2
55549;PMS7003;41397;49.972;18.944;2023-03-31T21:25:01;3;3;3
55549;PMS7003;41397;49.972;18.944;2023-03-31T21:28:02;3;3;2
55549;PMS7003;41397;49.972;18.944;2023-03-31T21:31:08;2;2;2
55549;PMS7003;41397;49.972;18.944;2023-03-31T21:34:11;3;3;2
55549;PMS7003;41397;49.972;18.944;2023-03-31T21:37:13;2;2;1
55549;PMS7003;41397;49.972;18.944;2023-03-31T21:40:14;1;1;1
55549;PMS7003;41397;49.972;18.944;2023-03-31T21:43:17;1;1;1
55549;PMS7003;41397;49.972;18.944;2023-03-31T21:46:23;2;2;2
55549;PMS7003;41397;49.972;18.944;2023-03-31T21:49:27;3;3;3
55549;PMS7003;41397;49.972;18.944;2023-03-31T21:52:29;2;2;1
55549;PMS7003;41397;49.972;18.944;2023-03-31T21:55:34;1;1;1
55549;PMS7003;41397;49.972;18.944;2023-03-31T21:58:38;0;0;0
55549;PMS7003;41397;49.972;18.944;2023-03-31T22:01:40;2;2;0
55549;PMS7003;41397;49.972;18.944;2023-03-31T22:04:42;1;1;1
55549;PMS7003;41397;49.972;18.944;2023-03-31T22:07:44;2;2;2
55549;PMS7003;41397;49.972;18.944;2023-03-31T22:10:49;1;1;1
55549;PMS7003;41397;49.972;18.944;2023-03-31T22:13:51;1;1;1
55549;PMS7003;41397;49.972;18.944;2023-03-31T22:16:53;2;2;2
55549;PMS7003;41397;49.972;18.944;2023-03-31T22:19:54;1;1;0
55549;PMS7003;41397;49.972;18.944;2023-03-31T22:22:57;1;1;1
55549;PMS7003;41397;49.972;18.944;2023-03-31T22:25:58;2;2;2
55549;PMS7003;41397;49.972;18.944;2023-03-31T22:29:00;1;1;1
55549;PMS7003;41397;49.972;18.944;2023-03-31T22:32:01;2;2;1
55549;PMS7003;41397;49.972;18.944;2023-03-31T22:35:03;1;1;1
55549;PMS7003;41397;49.972;18.944;2023-03-31T22:38:05;1;1;1
55549;PMS7003;41397;49.972;18.944;2023-03-31T22:41:07;2;2;2
55549;PMS7003;41397;49.972;18.944;2023-03-31T22:44:08;5;5;4
55549;PMS7003;41397;49.972;18.944;2023-03-31T22:47:10;1;1;1
55549;PMS7003;41397;49.972;18.944;2023-03-31T22:50:12;2;2;2
55549;PMS7003;41397;49.972;18.944;2023-03-31T22:53:13;2;2;2
55549;PMS7003;41397;49.972;18.944;2023-03-31T22:56:17;0;0;0
55549;PMS7003;41397;49.972;18.944;2023-03-31T22:59:20;1;1;1
55549;PMS7003;41397;49.972;18.944;2023-03-31T23:02:21;0;0;0
55549;PMS7003;41397;49.972;18.944;2023-03-31T23:05:23;1;1;1
55549;PMS7003;41397;49.972;18.944;2023-03-31T23:08:25;1;1;1
55549;PMS7003;41397;49.972;18.944;2023-03-31T23:11:27;0;0;0
55549;PMS7003;41397;49.972;18.944;2023-03-31T23:14:30;1;1;1
55549;PMS7003;41397;49.972;18.944;2023-03-31T23:17:31;2;2;2
55549;PMS7003;41397;49.972;18.944;2023-03-31T23:20:33;2;2;1
55549;PMS7003;41397;49.972;18.944;2023-03-31T23:23:38;1;1;1
55549;PMS7003;41397;49.972;18.944;2023-03-31T23:26:41;2;2;0
55549;PMS7003;41397;49.972;18.944;2023-03-31T23:29:43;1;1;0
55549;PMS7003;41397;49.972;18.944;2023-03-31T23:32:45;1;1;1
55549;PMS7003;41397;49.972;18.944;2023-03-31T23:35:47;2;2;2
55549;PMS7003;41397;49.972;18.944;2023-03-31T23:38:49;3;3;3
55549;PMS7003;41397;49.972;18.944;2023-03-31T23:41:52;1;1;1
55549;PMS7003;41397;49.972;18.944;2023-03-31T23:44:54;2;2;2
55549;PMS7003;41397;49.972;18.944;2023-03-31T23:47:55;3;3;1
55549;PMS7003;41397;49.972;18.944;2023-03-31T23:50:56;1;1;0
55549;PMS7003;41397;49.972;18.944;2023-03-31T23:53:58;1;1;1
55549;PMS7003;41397;49.972;18.944;2023-03-31T23:56:59;1;1;1
